ADDS METAR Data INFO
IDs: Format: Raw Decoded Include TAF

Data at: 0752 UTC 23 Apr 2018

KU68 230735Z AUTO 26007KT 10SM SCT120 10/00 A2999 RMK AO2
KU68 230715Z AUTO 25005KT 10SM SCT120 10/00 A2999 RMK AO2
KU68 230655Z AUTO 29009KT 10SM CLR 11/M01 A2999 RMK AO2
KU68 230635Z AUTO 29008KT 10SM SCT120 10/00 A2999 RMK AO2
KU68 230615Z AUTO 29004KT 10SM SCT120 10/M01 A2999 RMK AO2
KU68 230555Z AUTO 26008KT 10SM SCT110 10/00 A2998 RMK AO2
KU68 230535Z AUTO 29010KT 10SM SCT110 11/00 A2997 RMK AO2
KU68 230515Z AUTO 27008KT 10SM CLR 11/00 A2998 RMK AO2
KU68 230455Z AUTO 29009KT 10SM CLR 11/00 A2998 RMK AO2
KU68 230435Z AUTO 10SM CLR 12/00 A2998 RMK AO2
KU68 230415Z AUTO 10SM CLR 15/M01 A2999 RMK AO2
KU68 230355Z AUTO 10SM CLR 15/M01 A2998 RMK AO2
KU68 230335Z AUTO 10SM CLR 15/00 A2998 RMK AO2
KU68 230315Z AUTO 01011G20KT 10SM CLR 15/00 A2998 RMK AO2
KU68 230255Z AUTO 02011G19KT 10SM CLR 16/00 A2998 RMK AO2
KU68 230235Z AUTO 02011G16KT 10SM CLR 16/00 A2998 RMK AO2
KU68 230215Z AUTO 03010KT 10SM CLR 16/M01 A2998 RMK AO2
KU68 230155Z AUTO 03014G17KT 10SM CLR 17/M01 A2997 RMK AO2
KU68 230135Z AUTO 03012G15KT 10SM CLR 18/M01 A2997 RMK AO2
KU68 230115Z AUTO 04010KT 10SM CLR 20/M01 A2997 RMK AO2
KU68 230055Z AUTO 00000KT 10SM CLR 20/M03 A2997 RMK AO2
KU68 230035Z AUTO 07003KT 10SM CLR 21/M02 A2998 RMK AO2
KU68 230015Z AUTO 00000KT 10SM CLR 20/M03 A2998 RMK AO2
KU68 222355Z AUTO 15004KT 10SM CLR 21/M03 A2998 RMK AO2
KU68 222335Z AUTO 14003KT 10SM CLR 21/M02 A2998 RMK AO2
KU68 222315Z AUTO 30003KT 10SM CLR 21/M03 A2998 RMK AO2
KU68 222255Z AUTO 18003KT 10SM CLR 21/M02 A2999 RMK AO2
KU68 222235Z AUTO 14003KT 10SM CLR 21/M02 A2999 RMK AO2
KU68 222215Z AUTO 00000KT 10SM CLR 20/M03 A2999 RMK AO2
KU68 222155Z AUTO 08004KT 10SM CLR 20/M02 A3000 RMK AO2
KU68 222135Z AUTO 00000KT 10SM CLR 20/M02 A3001 RMK AO2
KU68 222115Z AUTO 11004KT 10SM CLR 20/M01 A3002 RMK AO2
KU68 222055Z AUTO 14005KT 10SM CLR 19/M01 A3003 RMK AO2
KU68 222035Z AUTO 20004KT 10SM CLR 19/M01 A3004 RMK AO2
KU68 222015Z AUTO 10SM CLR 18/M01 A3005 RMK AO2
KU68 221955Z AUTO 10004KT 10SM CLR 18/M01 A3006 RMK AO2
KU68 221935Z AUTO 17005KT 10SM CLR 18/M02 A3007 RMK AO2
KU68 221915Z AUTO 00000KT 10SM CLR 17/M02 A3007 RMK AO2
KU68 221855Z AUTO 14005KT 10SM CLR 16/M03 A3008 RMK AO2
KU68 221835Z AUTO 15003KT 10SM CLR 16/M02 A3009 RMK AO2
KU68 221815Z AUTO 00000KT 10SM CLR 16/M03 A3010 RMK AO2
KU68 221755Z AUTO 00000KT 10SM CLR 15/M03 A3010 RMK AO2
KU68 221735Z AUTO 00000KT 10SM CLR 14/M03 A3011 RMK AO2
KU68 221715Z AUTO 15003KT 10SM CLR 14/M03 A3012 RMK AO2
KU68 221655Z AUTO 15003KT 10SM CLR 13/M03 A3012 RMK AO2
KU68 221635Z AUTO 00000KT 10SM CLR 12/M03 A3013 RMK AO2
KU68 221615Z AUTO 00000KT 10SM CLR 12/M03 A3013 RMK AO2
KU68 221555Z AUTO 00000KT 10SM CLR 11/M03 A3014 RMK AO2
KU68 221535Z AUTO 00000KT 10SM CLR 11/M03 A3014 RMK AO2
KU68 221515Z AUTO 25003KT 10SM CLR 10/M03 A3014 RMK AO2
KU68 221455Z AUTO 26004KT 10SM CLR 10/M01 A3014 RMK AO2
KU68 221435Z AUTO 28004KT 10SM CLR 08/M01 A3014 RMK AO2
KU68 221415Z AUTO 27006KT 10SM CLR 07/M01 A3015 RMK AO2
KU68 221355Z AUTO 25007KT 10SM CLR 07/M01 A3015 RMK AO2
KU68 221335Z AUTO 26006KT 10SM CLR 06/M01 A3014 RMK AO2
KU68 221315Z AUTO 00000KT 10SM CLR 05/M01 A3013 RMK AO2
KU68 221255Z AUTO 25004KT 10SM CLR 04/M01 A3013 RMK AO2
KU68 221235Z AUTO 25008KT 10SM CLR 04/M02 A3012 RMK AO2
KU68 221215Z AUTO 28006KT 10SM CLR 04/M02 A3012 RMK AO2
KU68 221155Z AUTO 29006KT 10SM CLR 04/M02 A3012 RMK AO2
KU68 221135Z AUTO 28007KT 10SM CLR 05/M02 A3011 RMK AO2
KU68 221115Z AUTO 31004KT 10SM CLR 05/M02 A3011 RMK AO2
KU68 221055Z AUTO 29004KT 10SM CLR 05/M02 A3012 RMK AO2
KU68 221035Z AUTO 25003KT 10SM CLR 06/M02 A3012 RMK AO2
KU68 221015Z AUTO 24007KT 10SM CLR 07/M02 A3011 RMK AO2
KU68 220955Z AUTO 22003KT 10SM CLR 08/M02 A3011 RMK AO2
KU68 220935Z AUTO 29007KT 10SM CLR 09/M02 A3011 RMK AO2
KU68 220915Z AUTO 26005KT 10SM CLR 11/M02 A3011 RMK AO2
KU68 220855Z AUTO 01010G15KT 10SM SCT110 11/M03 A3010 RMK AO2
KU68 220835Z AUTO 02013G23KT 10SM SCT110 11/M02 A3009 RMK AO2
KU68 220815Z AUTO 03020G27KT 10SM SCT110 11/M03 A3008 RMK AO2
KU68 220755Z AUTO 03021G24KT 10SM BKN110 12/M03 A3007 RMK AO2
KU68 220735Z AUTO 03014G17KT 10SM SCT110 11/M03 A3007 RMK AO2
KU68 220715Z AUTO 04016KT 10SM SCT110 12/M03 A3006 RMK AO2
KU68 220655Z AUTO 03018G23KT 10SM BKN110 12/M02 A3006 RMK AO2
KU68 220635Z AUTO 04018G25KT 10SM BKN110 12/00 A3006 RMK AO2
KU68 220615Z AUTO 04003KT 10SM CLR 09/00 A3003 RMK AO2
KU68 220555Z AUTO 00000KT 10SM CLR 09/00 A3003 RMK AO2
KU68 220535Z AUTO 05004KT 10SM CLR 10/00 A3003 RMK AO2
KU68 220515Z AUTO 03003KT 10SM CLR 10/00 A3003 RMK AO2
KU68 220455Z AUTO 05004KT 10SM CLR 11/00 A3003 RMK AO2
KU68 220435Z AUTO 09004KT 10SM CLR 11/00 A3003 RMK AO2
KU68 220415Z AUTO 00000KT 10SM CLR 11/01 A3002 RMK AO2
KU68 220355Z AUTO 06004KT 10SM CLR 12/00 A3001 RMK AO2
KU68 220335Z AUTO 02004KT 10SM CLR 13/00 A3000 RMK AO2
KU68 220315Z AUTO 00000KT 10SM CLR 15/M02 A3000 RMK AO2
KU68 220255Z AUTO 00000KT 10SM CLR 15/M01 A2999 RMK AO2
KU68 220235Z AUTO 00000KT 10SM CLR 17/M03 A2998 RMK AO2
KU68 220215Z AUTO 14003KT 10SM CLR 18/M03 A2998 RMK AO2
KU68 220155Z AUTO 00000KT 10SM CLR 19/M02 A2997 RMK AO2
KU68 220135Z AUTO 00000KT 10SM CLR 20/M03 A2996 RMK AO2
KU68 220115Z AUTO 08003KT 10SM CLR 20/M04 A2996 RMK AO2
KU68 220055Z AUTO 00000KT 10SM CLR 21/M05 A2996 RMK AO2
KU68 220035Z AUTO 10004KT 10SM CLR 21/M05 A2996 RMK AO2
KU68 220015Z AUTO 08003KT 10SM CLR 21/M05 A2996 RMK AO2
KU68 212355Z AUTO 08004KT 10SM CLR 21/M05 A2996 RMK AO2
KU68 212335Z AUTO 00000KT 10SM CLR 21/M06 A2997 RMK AO2
KU68 212315Z AUTO 06003KT 10SM CLR 21/M05 A2997 RMK AO2
KU68 212255Z AUTO 13006KT 10SM CLR 21/M05 A2998 RMK AO2
KU68 212235Z AUTO 07006KT 10SM CLR 21/M05 A2998 RMK AO2
KU68 212215Z AUTO 11004KT 10SM CLR 21/M02 A2998 RMK AO2
KU68 212155Z AUTO 11005KT 10SM CLR 21/M02 A2998 RMK AO2
KU68 212135Z AUTO 11004KT 10SM CLR 20/M01 A2999 RMK AO2
KU68 212115Z AUTO 00000KT 10SM CLR 20/M02 A3000 RMK AO2
KU68 212055Z AUTO 00000KT 10SM CLR 19/M01 A3000 RMK AO2
KU68 212035Z AUTO 00000KT 10SM CLR 19/M01 A3001 RMK AO2
KU68 212015Z AUTO 00000KT 10SM CLR 19/M01 A3002 RMK AO2
KU68 211955Z AUTO 00000KT 10SM CLR 18/M01 A3002 RMK AO2